createdAt,value
2023-03-21T00:02:31.000Z,93.76
2023-03-21T00:05:17.000Z,93.65
2023-03-21T00:07:58.000Z,93.86
2023-03-21T00:10:40.000Z,93.76
2023-03-21T00:13:25.000Z,94.48
2023-03-21T00:16:09.000Z,94.78
2023-03-21T00:18:53.000Z,93.65
2023-03-21T00:21:37.000Z,93.04
2023-03-21T00:24:20.000Z,92.32
2023-03-21T00:27:04.000Z,93.35
2023-03-21T00:29:46.000Z,93.04
2023-03-21T00:32:29.000Z,93.04
2023-03-21T00:35:11.000Z,94.43
2023-03-21T00:37:51.000Z,94.27
2023-03-21T00:40:34.000Z,94.89
2023-03-21T00:43:17.000Z,95.4
2023-03-21T00:45:59.000Z,95.92
2023-03-21T00:48:44.000Z,95.71
2023-03-21T00:51:25.000Z,96.22
2023-03-21T00:54:09.000Z,96.02
2023-03-21T00:56:51.000Z,96.53
2023-03-21T00:59:34.000Z,96.22
2023-03-21T01:02:19.000Z,96.43
2023-03-21T01:05:01.000Z,96.64
2023-03-21T01:07:44.000Z,96.33
2023-03-21T01:10:24.000Z,95.81
2023-03-21T01:13:09.000Z,95.61
2023-03-21T01:15:52.000Z,95.81
2023-03-21T01:18:33.000Z,94.89
2023-03-21T01:21:18.000Z,94.99
2023-03-21T01:23:59.000Z,94.17
2023-03-21T01:26:40.000Z,93.65
2023-03-21T01:29:23.000Z,93.96
2023-03-21T01:32:07.000Z,93.35
2023-03-21T01:34:50.000Z,92.73
2023-03-21T01:37:33.000Z,93.35
2023-03-21T01:40:14.000Z,93.35
2023-03-21T01:42:57.000Z,93.65
2023-03-21T01:45:39.000Z,93.65
2023-03-21T01:48:22.000Z,93.24
2023-03-21T01:51:06.000Z,93.44
2023-03-21T01:53:48.000Z,94.37
2023-03-21T01:56:31.000Z,94.83
2023-03-21T01:59:12.000Z,95.65
2023-03-21T02:01:55.000Z,95.9
2023-03-21T02:04:38.000Z,96.21
2023-03-21T02:07:20.000Z,96.62
2023-03-21T02:10:04.000Z,97.34
2023-03-21T02:12:44.000Z,97.44
2023-03-21T02:15:25.000Z,97.86
2023-03-21T02:18:08.000Z,98.58
2023-03-21T02:20:58.000Z,98.88
2023-03-21T02:23:41.000Z,99.55
2023-03-21T02:26:25.000Z,99.76
2023-03-21T02:29:10.000Z,99.76
2023-03-21T02:31:52.000Z,99.99
2023-03-21T02:34:33.000Z,99.99
2023-03-21T02:37:15.000Z,99.99
2023-03-21T02:39:59.000Z,99.99
2023-03-21T02:42:44.000Z,99.99
2023-03-21T02:45:25.000Z,99.99
2023-03-21T02:48:07.000Z,99.99
2023-03-21T02:50:51.000Z,99.99
2023-03-21T02:53:34.000Z,99.99
2023-03-21T02:56:19.000Z,99.99
2023-03-21T02:59:00.000Z,99.99
2023-03-21T03:01:43.000Z,99.99
2023-03-21T03:04:25.000Z,99.99
2023-03-21T03:07:10.000Z,99.99
2023-03-21T03:09:55.000Z,99.99
2023-03-21T03:12:38.000Z,99.99
2023-03-21T03:15:22.000Z,99.99
2023-03-21T03:18:06.000Z,99.99
2023-03-21T03:20:48.000Z,99.99
2023-03-21T03:23:28.000Z,99.99
2023-03-21T03:26:11.000Z,99.99
2023-03-21T03:28:54.000Z,99.91
2023-03-21T03:31:36.000Z,99.81
2023-03-21T03:34:18.000Z,99.81
2023-03-21T03:37:02.000Z,99.71
2023-03-21T03:39:44.000Z,99.71
2023-03-21T03:42:25.000Z,99.99
2023-03-21T03:45:08.000Z,99.99
2023-03-21T03:47:51.000Z,99.99
2023-03-21T03:50:38.000Z,99.99
2023-03-21T03:53:21.000Z,99.99
2023-03-21T03:56:02.000Z,99.99
2023-03-21T03:58:44.000Z,99.99
2023-03-21T04:01:25.000Z,99.99
2023-03-21T04:04:09.000Z,99.99
2023-03-21T04:06:53.000Z,99.99
2023-03-21T04:09:35.000Z,99.99
2023-03-21T04:12:18.000Z,99.99
2023-03-21T04:15:02.000Z,99.99
2023-03-21T04:17:44.000Z,99.99
2023-03-21T04:20:26.000Z,99.99
2023-03-21T04:23:11.000Z,99.99
2023-03-21T04:25:55.000Z,99.99
2023-03-21T04:28:36.000Z,99.99
2023-03-21T04:31:18.000Z,99.99
2023-03-21T04:34:01.000Z,99.99
2023-03-21T04:36:42.000Z,99.99
2023-03-21T04:39:27.000Z,99.99
2023-03-21T04:42:08.000Z,99.99
2023-03-21T04:44:49.000Z,99.99
2023-03-21T04:47:32.000Z,99.99
2023-03-21T04:50:15.000Z,99.99
2023-03-21T04:52:58.000Z,99.99
2023-03-21T04:55:41.000Z,99.99
2023-03-21T04:58:23.000Z,99.99
2023-03-21T05:01:09.000Z,99.99
2023-03-21T05:03:52.000Z,99.99
2023-03-21T05:06:34.000Z,99.99
2023-03-21T05:09:17.000Z,99.99
2023-03-21T05:11:59.000Z,99.99
2023-03-21T05:14:44.000Z,99.99
2023-03-21T05:17:25.000Z,99.99
2023-03-21T05:20:10.000Z,99.99
2023-03-21T05:22:51.000Z,99.99
2023-03-21T05:25:35.000Z,99.99
2023-03-21T05:28:18.000Z,99.99
2023-03-21T05:31:02.000Z,99.99
2023-03-21T05:33:46.000Z,99.99
2023-03-21T05:36:29.000Z,99.99
2023-03-21T05:39:13.000Z,99.77
2023-03-21T05:41:57.000Z,99.56
2023-03-21T05:44:39.000Z,99.56
2023-03-21T05:47:22.000Z,99.46
2023-03-21T05:50:07.000Z,99.25
2023-03-21T05:52:51.000Z,99.31
2023-03-21T05:55:34.000Z,99.0
2023-03-21T05:58:23.000Z,98.79
2023-03-21T06:01:09.000Z,98.79
2023-03-21T06:03:53.000Z,98.49
2023-03-21T06:06:35.000Z,98.38
2023-03-21T06:09:16.000Z,98.07
2023-03-21T06:11:59.000Z,97.97
2023-03-21T06:14:44.000Z,97.87
2023-03-21T06:17:24.000Z,97.77
2023-03-21T06:20:06.000Z,97.62
2023-03-21T06:22:47.000Z,97.31
2023-03-21T06:25:32.000Z,97.41
2023-03-21T06:28:16.000Z,97.31
2023-03-21T06:30:57.000Z,96.85
2023-03-21T06:33:40.000Z,96.95
2023-03-21T06:36:23.000Z,96.65
2023-03-21T06:39:06.000Z,96.55
2023-03-21T06:41:49.000Z,96.14
2023-03-21T06:44:33.000Z,96.14
2023-03-21T06:47:15.000Z,95.89
2023-03-21T06:49:57.000Z,95.37
2023-03-21T06:52:44.000Z,94.92
2023-03-21T06:55:26.000Z,94.15
2023-03-21T06:58:09.000Z,93.64
2023-03-21T07:00:52.000Z,93.85
2023-03-21T07:03:36.000Z,93.7
2023-03-21T07:06:19.000Z,92.88
2023-03-21T07:09:02.000Z,92.36
2023-03-21T07:11:45.000Z,91.91
2023-03-21T07:14:25.000Z,91.22
2023-03-21T07:17:09.000Z,90.5
2023-03-21T07:19:52.000Z,90.45
2023-03-21T07:22:34.000Z,88.0
2023-03-21T07:25:18.000Z,88.31
2023-03-21T07:28:01.000Z,89.06
2023-03-21T07:30:42.000Z,88.29
2023-03-21T07:33:25.000Z,89.0
2023-03-21T07:36:07.000Z,89.21
2023-03-21T07:38:50.000Z,88.9
2023-03-21T07:41:34.000Z,89.83
2023-03-21T07:44:15.000Z,89.92
2023-03-21T07:46:56.000Z,89.42
2023-03-21T07:49:39.000Z,89.11
2023-03-21T07:52:23.000Z,90.23
2023-03-21T07:55:09.000Z,88.9
2023-03-21T07:57:51.000Z,88.41
2023-03-21T08:00:35.000Z,88.68
2023-03-21T08:03:18.000Z,87.45
2023-03-21T08:06:01.000Z,86.73
2023-03-21T08:08:44.000Z,87.35
2023-03-21T08:11:24.000Z,85.81
2023-03-21T08:14:07.000Z,85.4
2023-03-21T08:16:51.000Z,87.14
2023-03-21T08:19:34.000Z,87.04
2023-03-21T08:22:19.000Z,86.36
2023-03-21T08:25:00.000Z,87.29
2023-03-21T08:27:43.000Z,85.75
2023-03-21T08:30:29.000Z,86.83
2023-03-21T08:33:13.000Z,86.57
2023-03-21T08:35:57.000Z,86.73
2023-03-21T08:38:41.000Z,86.38
2023-03-21T08:41:24.000Z,85.32
2023-03-21T08:44:08.000Z,84.47
2023-03-21T08:46:52.000Z,84.2
2023-03-21T08:49:35.000Z,84.09
2023-03-21T08:52:17.000Z,84.88
2023-03-21T08:55:02.000Z,82.93
2023-03-21T08:57:44.000Z,83.3
2023-03-21T09:00:26.000Z,82.73
2023-03-21T09:03:10.000Z,82.83
2023-03-21T09:05:56.000Z,82.73
2023-03-21T09:08:36.000Z,82.69
2023-03-21T09:11:19.000Z,82.49
2023-03-21T09:14:04.000Z,82.45
2023-03-21T09:16:44.000Z,82.45
2023-03-21T09:19:26.000Z,81.9
2023-03-21T09:22:11.000Z,79.79
2023-03-21T09:24:54.000Z,78.45
2023-03-21T09:27:35.000Z,77.4
2023-03-21T09:30:17.000Z,77.87
2023-03-21T09:33:02.000Z,76.14
2023-03-21T09:35:46.000Z,76.75
2023-03-21T09:38:31.000Z,75.73
2023-03-21T09:41:18.000Z,76.55
2023-03-21T09:44:01.000Z,75.29
2023-03-21T09:46:43.000Z,76.78
2023-03-21T09:49:25.000Z,76.95
2023-03-21T09:52:10.000Z,76.61
2023-03-21T09:54:54.000Z,74.99
2023-03-21T09:57:35.000Z,75.19
2023-03-21T10:00:19.000Z,74.68
2023-03-21T10:03:01.000Z,74.54
2023-03-21T10:05:45.000Z,72.04
2023-03-21T10:08:28.000Z,71.33
2023-03-21T10:11:11.000Z,71.33
2023-03-21T10:13:56.000Z,73.32
2023-03-21T10:16:40.000Z,72.11
2023-03-21T10:19:24.000Z,70.42
2023-03-21T10:22:10.000Z,72.52
2023-03-21T10:24:54.000Z,73.49
2023-03-21T10:27:37.000Z,74.3
2023-03-21T10:30:21.000Z,73.32
2023-03-21T10:33:03.000Z,70.45
2023-03-21T10:35:43.000Z,70.36
2023-03-21T10:38:25.000Z,71.4
2023-03-21T10:41:10.000Z,69.81
2023-03-21T10:43:54.000Z,71.2
2023-03-21T10:46:37.000Z,70.49
2023-03-21T10:49:22.000Z,69.24
2023-03-21T10:52:08.000Z,71.16
2023-03-21T10:54:53.000Z,70.49
2023-03-21T10:57:34.000Z,66.89
2023-03-21T11:00:20.000Z,69.82
2023-03-21T11:03:04.000Z,66.11
2023-03-21T11:05:46.000Z,69.01
2023-03-21T11:08:28.000Z,68.27
2023-03-21T11:11:10.000Z,67.6
2023-03-21T11:13:57.000Z,66.16
2023-03-21T11:16:41.000Z,65.0
2023-03-21T11:19:25.000Z,69.85
2023-03-21T11:22:09.000Z,67.36
2023-03-21T11:24:53.000Z,66.62
2023-03-21T11:27:35.000Z,66.96
2023-03-21T11:30:19.000Z,66.32
2023-03-21T11:33:02.000Z,66.02
2023-03-21T11:35:47.000Z,66.35
2023-03-21T11:38:32.000Z,67.97
2023-03-21T11:41:17.000Z,64.84
2023-03-21T11:44:03.000Z,65.76
2023-03-21T11:46:46.000Z,62.65
2023-03-21T11:49:31.000Z,60.72
2023-03-21T11:52:18.000Z,63.05
2023-03-21T11:55:00.000Z,62.32
2023-03-21T11:57:42.000Z,60.91
2023-03-21T12:00:26.000Z,62.58
2023-03-21T12:03:12.000Z,62.85
2023-03-21T12:05:56.000Z,60.44
2023-03-21T12:08:40.000Z,62.51
2023-03-21T12:11:26.000Z,62.64
2023-03-21T12:14:10.000Z,61.98
2023-03-21T12:16:55.000Z,62.1
2023-03-21T12:19:43.000Z,62.85
2023-03-21T12:22:25.000Z,61.44
2023-03-21T12:25:08.000Z,61.04
2023-03-21T12:27:52.000Z,62.62
2023-03-21T12:30:37.000Z,62.02
2023-03-21T12:33:21.000Z,63.31
2023-03-21T12:36:05.000Z,64.09
2023-03-21T12:38:50.000Z,62.48
2023-03-21T12:41:35.000Z,64.22
2023-03-21T12:44:21.000Z,63.22
2023-03-21T12:47:04.000Z,60.98
2023-03-21T12:49:48.000Z,61.31
2023-03-21T12:52:33.000Z,59.47
2023-03-21T12:55:20.000Z,59.91
2023-03-21T12:58:04.000Z,60.28
2023-03-21T13:00:50.000Z,61.74
2023-03-21T13:03:35.000Z,62.54
2023-03-21T13:06:19.000Z,61.33
2023-03-21T13:09:04.000Z,64.25
2023-03-21T13:11:48.000Z,64.05
2023-03-21T13:14:35.000Z,62.81
2023-03-21T13:17:20.000Z,60.63
2023-03-21T13:20:05.000Z,62.27
2023-03-21T13:22:57.000Z,61.85
2023-03-21T13:25:43.000Z,60.47
2023-03-21T13:28:25.000Z,62.45
2023-03-21T13:31:11.000Z,61.24
2023-03-21T13:33:58.000Z,61.18
2023-03-21T13:36:41.000Z,61.41
2023-03-21T13:39:27.000Z,60.64
2023-03-21T13:42:12.000Z,60.16
2023-03-21T13:44:57.000Z,61.67
2023-03-21T13:47:45.000Z,61.99
2023-03-21T13:50:26.000Z,59.0
2023-03-21T13:53:11.000Z,60.61
2023-03-21T13:55:57.000Z,58.02
2023-03-21T13:58:41.000Z,61.37
2023-03-21T14:01:35.000Z,60.53
2023-03-21T14:04:19.000Z,62.18
2023-03-21T14:07:03.000Z,60.29
2023-03-21T14:09:46.000Z,61.07
2023-03-21T14:12:38.000Z,59.19
2023-03-21T14:15:24.000Z,62.61
2023-03-21T14:18:11.000Z,61.13
2023-03-21T14:20:57.000Z,62.94
2023-03-21T14:23:42.000Z,62.87
2023-03-21T14:26:28.000Z,63.37
2023-03-21T14:29:19.000Z,64.25
2023-03-21T14:32:01.000Z,63.62
2023-03-21T14:34:44.000Z,62.81
2023-03-21T14:37:28.000Z,63.31
2023-03-21T14:40:13.000Z,62.04
2023-03-21T14:42:56.000Z,62.1
2023-03-21T14:45:44.000Z,62.78
2023-03-21T14:48:26.000Z,59.64
2023-03-21T14:51:10.000Z,62.8
2023-03-21T14:54:02.000Z,63.27
2023-03-21T14:56:46.000Z,65.29
2023-03-21T14:59:32.000Z,64.11
2023-03-21T15:02:18.000Z,64.11
2023-03-21T15:05:02.000Z,63.5
2023-03-21T15:07:48.000Z,63.64
2023-03-21T15:10:43.000Z,64.64
2023-03-21T15:13:29.000Z,66.79
2023-03-21T15:16:13.000Z,65.28
2023-03-21T15:18:57.000Z,67.6
2023-03-21T15:21:43.000Z,65.92
2023-03-21T15:24:26.000Z,64.9
2023-03-21T15:27:11.000Z,67.23
2023-03-21T15:29:57.000Z,65.01
2023-03-21T15:32:41.000Z,66.19
2023-03-21T15:35:26.000Z,66.29
2023-03-21T15:38:11.000Z,67.6
2023-03-21T15:40:55.000Z,65.75
2023-03-21T15:43:41.000Z,64.44
2023-03-21T15:46:26.000Z,65.55
2023-03-21T15:49:11.000Z,64.98
2023-03-21T15:51:59.000Z,65.58
2023-03-21T15:54:42.000Z,67.5
2023-03-21T15:57:25.000Z,66.29
2023-03-21T16:00:13.000Z,66.59
2023-03-21T16:02:58.000Z,67.73
2023-03-21T16:05:44.000Z,65.31
2023-03-21T16:08:26.000Z,67.16
2023-03-21T16:11:11.000Z,67.69
2023-03-21T16:13:57.000Z,68.51
2023-03-21T16:16:41.000Z,70.22
2023-03-21T16:19:25.000Z,69.75
2023-03-21T16:22:10.000Z,71.47
2023-03-21T16:24:54.000Z,72.81
2023-03-21T16:27:44.000Z,72.11
2023-03-21T16:30:31.000Z,72.41
2023-03-21T16:33:18.000Z,73.15
2023-03-21T16:36:03.000Z,74.67
2023-03-21T16:38:52.000Z,73.8
2023-03-21T16:41:36.000Z,72.88
2023-03-21T16:44:33.000Z,74.33
2023-03-21T16:47:19.000Z,75.25
2023-03-21T16:50:12.000Z,76.09
2023-03-21T16:53:03.000Z,76.54
2023-03-21T16:55:58.000Z,78.06
2023-03-21T16:59:35.000Z,77.69
2023-03-21T17:02:14.000Z,77.79
2023-03-21T17:04:56.000Z,79.61
2023-03-21T17:07:36.000Z,79.72
2023-03-21T17:10:18.000Z,80.32
2023-03-21T17:13:01.000Z,80.16
2023-03-21T17:15:44.000Z,79.45
2023-03-21T17:18:26.000Z,79.45
2023-03-21T17:21:11.000Z,80.16
2023-03-21T17:23:55.000Z,80.19
2023-03-21T17:26:37.000Z,79.79
2023-03-21T17:29:18.000Z,79.79
2023-03-21T17:32:00.000Z,79.93
2023-03-21T17:34:41.000Z,78.81
2023-03-21T17:37:24.000Z,80.03
2023-03-21T17:40:07.000Z,79.93
2023-03-21T17:42:50.000Z,80.27
2023-03-21T17:45:31.000Z,80.17
2023-03-21T17:48:14.000Z,80.47
2023-03-21T17:51:02.000Z,79.56
2023-03-21T17:53:43.000Z,79.86
2023-03-21T17:56:26.000Z,80.37
2023-03-21T17:59:09.000Z,79.66
2023-03-21T18:01:56.000Z,79.77
2023-03-21T18:04:38.000Z,78.04
2023-03-21T18:07:21.000Z,78.14
2023-03-21T18:10:06.000Z,78.44
2023-03-21T18:12:47.000Z,76.82
2023-03-21T18:15:27.000Z,75.6
2023-03-21T18:18:10.000Z,76.01
2023-03-21T18:20:53.000Z,76.1
2023-03-21T18:23:37.000Z,75.7
2023-03-21T18:26:27.000Z,75.9
2023-03-21T18:29:13.000Z,77.87
2023-03-21T18:31:55.000Z,79.39
2023-03-21T18:34:38.000Z,81.37
2023-03-21T18:37:21.000Z,82.73
2023-03-21T18:40:04.000Z,84.09
2023-03-21T18:42:44.000Z,84.39
2023-03-21T18:45:23.000Z,85.75
2023-03-21T18:48:06.000Z,86.16
2023-03-21T18:50:45.000Z,87.32
2023-03-21T18:53:27.000Z,87.84
2023-03-21T18:56:09.000Z,88.24
2023-03-21T18:58:53.000Z,88.69
2023-03-21T19:01:35.000Z,89.3
2023-03-21T19:04:17.000Z,89.51
2023-03-21T19:07:00.000Z,90.01
2023-03-21T19:09:42.000Z,90.32
2023-03-21T19:12:31.000Z,90.94
2023-03-21T19:15:14.000Z,91.59
2023-03-21T19:17:57.000Z,91.79
2023-03-21T19:20:45.000Z,91.89
2023-03-21T19:23:28.000Z,92.1
2023-03-21T19:26:18.000Z,92.5
2023-03-21T19:29:00.000Z,92.81
2023-03-21T19:31:41.000Z,92.61
2023-03-21T19:34:24.000Z,92.71
2023-03-21T19:37:08.000Z,92.71
2023-03-21T19:39:51.000Z,93.02
2023-03-21T19:42:34.000Z,93.26
2023-03-21T19:45:21.000Z,93.88
2023-03-21T19:48:05.000Z,93.77
2023-03-21T19:50:47.000Z,93.57
2023-03-21T19:53:29.000Z,93.16
2023-03-21T19:56:19.000Z,93.16
2023-03-21T19:59:01.000Z,92.76
2023-03-21T20:01:44.000Z,93.47
2023-03-21T20:04:33.000Z,93.26
2023-03-21T20:07:19.000Z,93.57
2023-03-21T20:10:05.000Z,93.77
2023-03-21T20:12:49.000Z,93.37
2023-03-21T20:15:40.000Z,93.26
2023-03-21T20:18:26.000Z,92.86
2023-03-21T20:21:13.000Z,94.59
2023-03-21T20:23:57.000Z,95.86
2023-03-21T20:26:43.000Z,95.96
2023-03-21T20:29:27.000Z,96.06
2023-03-21T20:32:12.000Z,96.58
2023-03-21T20:34:58.000Z,96.92
2023-03-21T20:37:45.000Z,97.03
2023-03-21T20:40:29.000Z,96.06
2023-03-21T20:43:18.000Z,96.92
2023-03-21T20:46:00.000Z,96.83
2023-03-21T20:48:44.000Z,96.83
2023-03-21T20:51:27.000Z,96.92
2023-03-21T20:54:11.000Z,97.03
2023-03-21T20:56:57.000Z,96.72
2023-03-21T20:59:42.000Z,96.21
2023-03-21T21:02:25.000Z,96.01
2023-03-21T21:05:09.000Z,96.01
2023-03-21T21:07:54.000Z,96.01
2023-03-21T21:10:40.000Z,96.01
2023-03-21T21:13:22.000Z,96.21
2023-03-21T21:16:08.000Z,96.01
2023-03-21T21:18:53.000Z,96.42
2023-03-21T21:21:36.000Z,96.51
2023-03-21T21:24:20.000Z,96.72
2023-03-21T21:27:06.000Z,96.51
2023-03-21T21:29:51.000Z,96.42
2023-03-21T21:32:37.000Z,96.51
2023-03-21T21:35:21.000Z,96.31
2023-03-21T21:38:07.000Z,96.31
2023-03-21T21:40:52.000Z,96.42
2023-03-21T21:43:34.000Z,96.62
2023-03-21T21:46:19.000Z,96.72
2023-03-21T21:49:03.000Z,96.62
2023-03-21T21:51:46.000Z,96.51
2023-03-21T21:54:31.000Z,96.56
2023-03-21T21:57:17.000Z,96.77
2023-03-21T22:00:02.000Z,97.38
2023-03-21T22:02:45.000Z,97.89
2023-03-21T22:05:29.000Z,97.89
2023-03-21T22:08:13.000Z,97.89
2023-03-21T22:10:57.000Z,97.89
2023-03-21T22:13:43.000Z,98.4
2023-03-21T22:16:28.000Z,98.4
2023-03-21T22:19:14.000Z,98.55
2023-03-21T22:21:58.000Z,99.02
2023-03-21T22:24:43.000Z,99.27
2023-03-21T22:27:25.000Z,99.63
2023-03-21T22:30:09.000Z,99.99
2023-03-21T22:32:56.000Z,99.99
2023-03-21T22:35:38.000Z,99.99
2023-03-21T22:38:22.000Z,99.99
2023-03-21T22:41:09.000Z,99.99
2023-03-21T22:43:52.000Z,99.99
2023-03-21T22:46:35.000Z,99.99
2023-03-21T22:49:19.000Z,99.99
2023-03-21T22:52:04.000Z,99.99
2023-03-21T22:54:54.000Z,99.99
2023-03-21T22:57:37.000Z,99.99
2023-03-21T23:00:18.000Z,99.99
2023-03-21T23:03:06.000Z,99.99
2023-03-21T23:05:50.000Z,99.99
2023-03-21T23:08:35.000Z,99.99
2023-03-21T23:11:17.000Z,99.99
2023-03-21T23:14:02.000Z,99.99
2023-03-21T23:16:45.000Z,99.99
2023-03-21T23:19:28.000Z,99.99
2023-03-21T23:22:11.000Z,99.99
2023-03-21T23:24:56.000Z,99.99
2023-03-21T23:27:40.000Z,99.99
2023-03-21T23:30:24.000Z,99.99
2023-03-21T23:33:07.000Z,99.99
2023-03-21T23:35:52.000Z,99.99
2023-03-21T23:38:36.000Z,99.99
2023-03-21T23:41:18.000Z,99.99
2023-03-21T23:44:03.000Z,99.99
2023-03-21T23:46:45.000Z,99.99
2023-03-21T23:49:27.000Z,99.99
2023-03-21T23:52:10.000Z,99.99
2023-03-21T23:54:55.000Z,99.99
2023-03-21T23:57:39.000Z,99.99
